Terminal Aerodrome Forecast
Issued by NWS

Current Version | Previous Version | Text Only | Print | Product List | Glossary Off
Versions: 1 2 3 4 5 6 7 8 9 10 11 12 13

000
FTUS42 KMHX 281739
TAFPGV
TAF
KPGV 281739Z 2818/2918 23011KT P6SM VCSH SCT070
      TEMPO 2821/2823 4SM TS BKN020CB
     FM282300 26007KT P6SM VCSH FEW020 SCT100
     FM290300 28005KT P6SM FEW050
     FM291200 01007KT P6SM BKN010
     FM291600 02009KT P6SM BKN250
      AMD LTD TO CLD VIS AND WIND=

USA.gov is the U.S. government's official web portal to all federal, state and local government web resources and services.